Time;durP1;ratioP1;P1;durP2;ratioP2;P2;SDS_P1;SDS_P2;PMS_P1;PMS_P2;Temp;Humidity;BMP_temperature;BMP_pressure;BME280_temperature;BME280_humidity;BME280_pressure;Samples;Min_cycle;Max_cycle;Signal;HPM_P1;HPM_P2
2022/04/01 00:19:20;;;;;;;5.47;4.00;;;19.20;61.70;;;;;;6234470;22;20408;-86
2022/04/01 00:21:46;;;;;;;6.47;4.97;;;18.30;63.10;;;;;;5013783;28;20061;-86
2022/04/01 00:24:12;;;;;;;6.25;4.88;;;17.80;64.90;;;;;;5015333;28;20544;-84
2022/04/01 00:26:38;;;;;;;6.75;4.35;;;17.70;65.20;;;;;;5015865;28;20030;-84
2022/04/01 00:29:15;;;;;;;9.35;6.25;;;17.90;65.10;;;;;;5015550;28;20064;-85
2022/04/01 00:35:10;;;;;;;9.70;7.22;;;18.30;64.00;;;;;;5016402;28;20071;-87
2022/04/01 00:37:35;;;;;;;9.15;6.88;;;18.50;63.40;;;;;;5016039;28;20024;-86
2022/04/01 00:44:18;;;;;;;7.40;5.47;;;18.70;63.10;;;;;;5014338;28;20120;-84
2022/04/01 00:46:50;;;;;;;8.23;6.20;;;18.70;62.90;;;;;;5011021;28;20030;-86
2022/04/01 00:49:18;;;;;;;8.00;6.10;;;18.30;63.80;;;;;;4994653;28;20168;-84
2022/04/01 00:51:45;;;;;;;9.20;7.03;;;18.60;63.20;;;;;;5012169;28;20105;-86
2022/04/01 00:54:11;;;;;;;8.35;6.80;;;18.70;63.30;;;;;;4996271;28;20033;-86
2022/04/01 00:56:38;;;;;;;7.68;5.80;;;18.90;62.50;;;;;;5014243;28;20030;-86
2022/04/01 00:59:05;;;;;;;6.45;4.85;;;18.90;62.20;;;;;;5014363;28;20115;-85
2022/04/01 01:01:34;;;;;;;7.72;4.88;;;18.90;61.50;;;;;;5009025;28;20113;-83
2022/04/01 01:04:13;;;;;;;8.45;5.25;;;18.70;62.10;;;;;;5011206;28;20033;-86
2022/04/01 01:07:00;;;;;;;7.00;5.53;;;18.70;62.50;;;;;;5011242;28;20061;-85
2022/04/01 01:09:27;;;;;;;9.63;6.03;;;18.80;62.40;;;;;;4994610;28;20085;-86
2022/04/01 01:11:54;;;;;;;9.05;5.80;;;18.80;62.40;;;;;;5012158;28;20425;-83
2022/04/01 01:14:30;;;;;;;12.80;6.22;;;18.90;61.70;;;;;;5011163;28;20077;-83
2022/04/01 01:16:56;;;;;;;9.27;6.45;;;19.00;61.70;;;;;;5011102;28;20050;-84
2022/04/01 01:19:22;;;;;;;11.93;7.88;;;18.90;61.80;;;;;;5011795;28;20034;-83
2022/04/01 01:21:51;;;;;;;10.80;7.43;;;19.00;61.50;;;;;;4994167;28;20054;-85
2022/04/01 01:24:17;;;;;;;10.48;7.32;;;19.10;61.70;;;;;;5014118;28;20092;-83
2022/04/01 01:26:55;;;;;;;9.85;6.85;;;19.10;61.90;;;;;;5014111;28;20461;-84
2022/04/01 01:29:27;;;;;;;8.98;6.57;;;19.20;61.20;;;;;;5012898;28;20416;-87
2022/04/01 01:31:55;;;;;;;9.90;6.22;;;19.10;61.00;;;;;;4995814;28;20026;-84
2022/04/01 01:34:22;;;;;;;11.45;7.25;;;19.10;61.30;;;;;;5010596;28;20042;-83
2022/04/01 01:36:48;;;;;;;13.43;8.60;;;19.00;61.20;;;;;;5010612;28;20022;-83
2022/04/01 01:39:14;;;;;;;10.02;6.55;;;19.00;61.30;;;;;;5010494;28;20374;-85
2022/04/01 01:41:46;;;;;;;14.18;8.20;;;19.10;61.60;;;;;;4997172;28;20523;-86
2022/04/01 01:47:34;;;;;;;9.70;6.35;;;19.00;61.90;;;;;;5014851;28;20114;-83
2022/04/01 01:56:05;;;;;;;10.98;6.88;;;18.90;61.50;;;;;;4995923;28;20445;-84
2022/04/01 01:58:32;;;;;;;9.60;6.45;;;19.00;61.50;;;;;;5010051;28;20101;-84
2022/04/01 02:00:57;;;;;;;18.23;8.23;;;19.00;61.30;;;;;;5010092;28;20030;-87
2022/04/01 02:03:23;;;;;;;14.00;7.53;;;18.80;62.20;;;;;;5023898;28;20390;-84
2022/04/01 02:05:50;;;;;;;11.80;6.93;;;18.80;61.80;;;;;;5013289;28;20056;-87
2022/04/01 02:08:56;;;;;;;13.43;8.10;;;18.30;63.30;;;;;;4992090;28;20092;-89
2022/04/01 02:11:22;;;;;;;15.20;8.75;;;18.30;63.00;;;;;;4993554;28;20113;-84
2022/04/01 02:17:14;;;;;;;15.88;8.05;;;18.80;62.00;;;;;;4993711;28;20084;-87
2022/04/01 02:19:40;;;;;;;15.80;10.27;;;18.80;62.00;;;;;;4992772;28;20042;-84
2022/04/01 02:25:47;;;;;;;13.77;8.85;;;19.00;61.70;;;;;;4982331;28;20069;-90
2022/04/01 02:28:13;;;;;;;14.70;8.80;;;18.80;61.80;;;;;;4976517;28;20038;-86
2022/04/01 02:30:39;;;;;;;12.77;7.57;;;18.70;61.70;;;;;;4976163;28;20030;-87
2022/04/01 02:33:08;;;;;;;13.00;8.10;;;18.70;61.70;;;;;;4992603;28;20069;-87
2022/04/01 02:35:34;;;;;;;14.40;8.40;;;18.50;62.30;;;;;;4992721;28;20382;-88
2022/04/01 02:41:42;;;;;;;14.35;7.78;;;18.30;63.10;;;;;;5012684;28;20491;-86
2022/04/01 03:06:52;;;;;;;17.25;9.25;;;18.70;62.30;;;;;;5100346;22;20050;-84
2022/04/01 03:09:17;;;;;;;15.35;9.32;;;18.70;62.00;;;;;;4997492;28;20026;-88
2022/04/01 03:11:56;;;;;;;17.25;10.05;;;18.70;62.20;;;;;;4997352;28;20022;-85
2022/04/01 03:20:46;;;;;;;11.85;6.47;;;18.80;62.20;;;;;;4998310;28;20045;-89
2022/04/01 03:24:01;;;;;;;9.13;6.05;;;18.70;62.50;;;;;;4996817;28;20027;-89
2022/04/01 03:27:35;;;;;;;10.88;6.40;;;18.70;62.30;;;;;;4998439;28;20026;-87
2022/04/01 03:30:01;;;;;;;10.02;6.13;;;18.50;62.30;;;;;;5007874;28;20393;-84
2022/04/01 03:35:02;;;;;;;12.43;6.68;;;18.60;62.10;;;;;;5759124;23;20046;-87
2022/04/01 03:37:27;;;;;;;11.85;7.57;;;18.60;61.70;;;;;;4976142;28;20037;-85
2022/04/01 03:39:53;;;;;;;11.23;6.75;;;18.60;62.40;;;;;;4981308;28;20100;-86
2022/04/01 04:01:37;;;;;;;9.73;5.20;;;18.50;62.70;;;;;;4958278;29;20090;-83
2022/04/01 04:07:26;;;;;;;8.18;5.47;;;17.40;65.50;;;;;;4957933;28;20045;-84
2022/04/01 04:09:53;;;;;;;7.03;5.03;;;16.80;67.40;;;;;;4941220;29;20027;-83
2022/04/01 04:12:22;;;;;;;12.35;7.03;;;16.80;68.20;;;;;;4970152;28;20424;-84
2022/04/01 04:14:53;;;;;;;7.97;5.47;;;17.30;67.00;;;;;;4948995;28;20094;-85
2022/04/01 04:24:06;;;;;;;10.60;6.63;;;18.30;63.60;;;;;;4977646;28;20142;-83
2022/04/01 04:26:35;;;;;;;10.75;7.07;;;18.50;63.10;;;;;;4956710;29;20023;-85
2022/04/01 04:33:00;;;;;;;10.25;7.32;;;18.90;62.40;;;;;;4975813;28;20393;-85
2022/04/01 04:38:52;;;;;;;8.65;5.68;;;19.00;61.90;;;;;;4976496;28;20054;-84
2022/04/01 04:47:48;;;;;;;8.60;5.85;;;18.20;63.60;;;;;;4614829;28;10000563;-86
2022/04/01 04:50:17;;;;;;;10.63;6.30;;;18.30;63.50;;;;;;4961804;28;20117;-86
2022/04/01 04:52:49;;;;;;;8.47;5.93;;;18.60;63.00;;;;;;4953600;28;20070;-85
2022/04/01 04:55:19;;;;;;;10.98;7.57;;;18.70;62.30;;;;;;4954001;29;20027;-85
2022/04/01 04:57:47;;;;;;;13.50;7.93;;;18.60;62.60;;;;;;4952832;29;20038;-86
2022/04/01 05:00:19;;;;;;;10.50;6.45;;;18.80;62.20;;;;;;4953624;29;20581;-85
2022/04/01 05:03:19;;;;;;;72.20;29.27;;;19.00;61.90;;;;;;4952772;29;20109;-85
2022/04/01 05:05:53;;;;;;;40.00;18.65;;;19.20;61.30;;;;;;4952629;29;20027;-86
2022/04/01 05:08:48;;;;;;;12.68;6.78;;;19.20;61.70;;;;;;5011226;22;20526;-80
2022/04/01 05:11:33;;;;;;;9.40;5.97;;;18.80;62.10;;;;;;5030488;28;20083;-79
2022/04/01 05:14:34;;;;;;;9.73;6.50;;;18.60;63.50;;;;;;5013071;28;20022;-80
2022/04/01 05:17:05;;;;;;;16.23;10.93;;;18.60;62.90;;;;;;4992335;28;20042;-80
2022/04/01 05:19:31;;;;;;;14.75;8.75;;;18.50;63.30;;;;;;4994456;28;20437;-79
2022/04/01 05:22:01;;;;;;;18.80;11.77;;;18.60;62.90;;;;;;5012322;28;20018;-79
2022/04/01 05:24:37;;;;;;;16.67;11.45;;;18.80;62.30;;;;;;5012699;28;20054;-80
2022/04/01 05:27:05;;;;;;;11.77;8.00;;;18.90;62.10;;;;;;4994960;28;20022;-79
2022/04/01 05:29:36;;;;;;;8.95;6.28;;;19.00;61.90;;;;;;5012059;28;20021;-80
2022/04/01 05:32:05;;;;;;;8.93;6.25;;;18.60;63.00;;;;;;4996252;28;20144;-79
2022/04/01 05:34:43;;;;;;;9.35;6.63;;;18.30;63.80;;;;;;5003123;28;20018;-77
2022/04/01 05:37:10;;;;;;;8.27;6.00;;;18.50;63.40;;;;;;5004303;28;20061;-80
2022/04/01 05:39:38;;;;;;;12.07;7.65;;;18.70;63.60;;;;;;5009593;28;20033;-79
2022/04/01 05:42:08;;;;;;;9.93;7.05;;;18.80;62.80;;;;;;5007308;28;20101;-80
2022/04/01 05:44:35;;;;;;;10.43;6.85;;;18.90;62.40;;;;;;4996891;28;20037;-79
2022/04/01 05:47:02;;;;;;;10.68;6.80;;;18.90;62.40;;;;;;4647013;28;10000324;-79
2022/04/01 05:49:28;;;;;;;10.98;6.93;;;19.00;62.20;;;;;;4991929;28;20027;-80
2022/04/01 05:51:55;;;;;;;10.43;6.97;;;19.10;62.20;;;;;;4975356;28;20053;-80
2022/04/01 05:54:23;;;;;;;9.05;6.63;;;19.10;61.90;;;;;;4992524;28;20080;-81
2022/04/01 05:56:50;;;;;;;8.02;5.68;;;19.10;61.70;;;;;;4975257;28;20014;-80
2022/04/01 05:59:19;;;;;;;5.97;4.80;;;19.10;62.00;;;;;;4992342;28;20113;-80
2022/04/01 06:02:22;;;;;;;8.43;5.38;;;19.10;61.80;;;;;;4975318;28;20026;-79
2022/04/01 06:05:12;;;;;;;9.40;6.18;;;18.90;62.40;;;;;;4913190;29;20035;-80
2022/04/01 06:07:56;;;;;;;15.30;9.88;;;18.80;62.40;;;;;;4905040;29;20044;-80
2022/04/01 06:10:37;;;;;;;13.27;9.27;;;18.80;62.80;;;;;;4933606;29;20345;-78
2022/04/01 06:13:24;;;;;;;12.82;8.27;;;19.00;63.00;;;;;;4934370;29;20035;-80
2022/04/01 06:16:24;;;;;;;13.80;8.10;;;18.90;62.40;;;;;;4934350;29;20028;-81
2022/04/01 06:18:59;;;;;;;16.80;12.43;;;18.60;62.60;;;;;;4934352;29;20036;-81
2022/04/01 06:21:27;;;;;;;13.68;10.48;;;18.10;63.80;;;;;;4918415;29;20034;-80
2022/04/01 06:24:06;;;;;;;14.02;12.32;;;17.90;65.10;;;;;;4918346;29;20028;-80
2022/04/01 06:26:37;;;;;;;20.85;18.60;;;17.90;65.50;;;;;;4934229;29;20032;-81
2022/04/01 06:29:25;;;;;;;19.20;16.67;;;18.00;65.30;;;;;;4933712;29;20020;-81
2022/04/01 06:31:59;;;;;;;19.67;17.58;;;17.90;65.50;;;;;;4934033;29;20039;-79
2022/04/01 06:34:55;;;;;;;13.77;10.85;;;17.90;65.30;;;;;;4917917;29;20156;-80
2022/04/01 06:37:29;;;;;;;23.00;10.65;;;17.90;65.70;;;;;;4898922;29;20032;-79
2022/04/01 06:40:04;;;;;;;15.02;11.15;;;17.80;65.70;;;;;;4902625;29;20052;-80
2022/04/01 06:42:32;;;;;;;18.15;11.15;;;17.50;66.70;;;;;;4918300;29;20426;-81
2022/04/01 06:44:59;;;;;;;19.25;11.63;;;17.70;66.20;;;;;;4917908;29;20056;-80
2022/04/01 06:47:25;;;;;;;14.85;10.00;;;17.80;66.60;;;;;;4917888;29;20059;-81
2022/04/01 06:49:50;;;;;;;21.23;13.52;;;18.00;66.40;;;;;;4918235;29;20174;-80
2022/04/01 06:52:16;;;;;;;54.47;34.30;;;18.30;65.10;;;;;;4918200;29;20471;-83
2022/04/01 06:54:43;;;;;;;46.35;32.30;;;18.60;64.60;;;;;;4918400;29;20039;-80
2022/04/01 06:57:09;;;;;;;44.13;29.48;;;18.80;64.00;;;;;;4934168;29;20030;-81
2022/04/01 06:59:35;;;;;;;33.10;18.67;;;18.90;63.80;;;;;;4918012;29;20042;-81
2022/04/01 07:02:01;;;;;;;21.40;12.70;;;19.00;63.50;;;;;;4933941;29;20073;-80
2022/04/01 07:04:27;;;;;;;18.73;10.70;;;18.80;63.30;;;;;;4917747;29;20047;-80
2022/04/01 07:06:55;;;;;;;16.60;11.45;;;18.70;63.50;;;;;;4932838;29;20034;-78
2022/04/01 07:09:22;;;;;;;10.93;7.20;;;18.50;63.80;;;;;;4917395;29;20024;-80
2022/04/01 07:11:48;;;;;;;10.85;9.23;;;18.10;64.60;;;;;;4933420;29;20056;-79
2022/04/01 07:14:14;;;;;;;9.43;8.00;;;17.90;65.40;;;;;;4955759;28;20029;-79
2022/04/01 07:16:40;;;;;;;8.25;7.15;;;17.80;65.20;;;;;;5013202;28;20022;-79
2022/04/01 07:19:06;;;;;;;11.40;8.93;;;17.40;66.10;;;;;;4995333;28;20372;-80
2022/04/01 07:21:32;;;;;;;11.48;9.00;;;17.30;66.50;;;;;;4995567;28;20017;-80
2022/04/01 07:24:00;;;;;;;7.30;5.57;;;17.40;66.60;;;;;;4995635;28;20026;-80
2022/04/01 07:26:26;;;;;;;6.03;4.47;;;17.50;65.80;;;;;;5012990;28;20018;-80
2022/04/01 07:28:52;;;;;;;9.70;7.22;;;17.40;65.30;;;;;;4995116;28;20029;-80
2022/04/01 07:34:02;;;;;;;6.90;4.80;;;17.40;64.90;;;;;;5013471;28;20611;-78
2022/04/01 07:36:28;;;;;;;6.47;5.03;;;17.30;65.80;;;;;;4995264;28;20022;-79
2022/04/01 07:38:53;;;;;;;7.47;4.78;;;17.10;66.10;;;;;;5012437;28;20504;-79
2022/04/01 07:41:20;;;;;;;6.15;4.55;;;16.80;66.50;;;;;;5013957;28;20460;-80
2022/04/01 07:43:45;;;;;;;6.00;4.28;;;16.70;66.80;;;;;;4652089;28;9999652;-79
2022/04/01 07:46:11;;;;;;;11.63;8.95;;;16.70;67.30;;;;;;4998992;28;20041;-78
2022/04/01 07:48:37;;;;;;;9.43;7.32;;;17.10;65.90;;;;;;5014604;28;20018;-79
2022/04/01 07:51:03;;;;;;;11.93;8.48;;;17.00;65.90;;;;;;4998226;28;20028;-80
2022/04/01 07:53:29;;;;;;;29.08;15.85;;;17.30;65.70;;;;;;4998735;28;20018;-81
2022/04/01 07:55:55;;;;;;;16.65;9.70;;;17.60;65.40;;;;;;4999270;28;20018;-80
2022/04/01 07:58:21;;;;;;;10.07;7.38;;;17.60;64.40;;;;;;5016312;28;20453;-77
2022/04/01 08:00:46;;;;;;;9.13;6.30;;;17.90;63.90;;;;;;4998728;28;20581;-79
2022/04/01 08:03:12;;;;;;;8.40;5.88;;;17.80;63.80;;;;;;5016249;28;20033;-79
2022/04/01 08:05:38;;;;;;;6.55;5.03;;;17.90;63.70;;;;;;4998509;28;20029;-77
2022/04/01 08:08:04;;;;;;;6.50;5.25;;;17.80;64.10;;;;;;4998292;28;20038;-77
2022/04/01 08:10:32;;;;;;;6.05;4.30;;;17.70;64.10;;;;;;5014666;28;20071;-78
2022/04/01 08:12:58;;;;;;;5.32;4.15;;;17.70;64.30;;;;;;5016036;28;20097;-76
2022/04/01 08:15:23;;;;;;;5.75;4.65;;;17.20;64.30;;;;;;4998267;28;20025;-77
2022/04/01 08:17:49;;;;;;;6.30;4.38;;;17.10;65.20;;;;;;4998066;28;20026;-76
2022/04/01 08:20:15;;;;;;;6.15;4.35;;;17.10;65.10;;;;;;5015629;28;20053;-78
2022/04/01 08:22:41;;;;;;;6.75;4.45;;;17.20;64.20;;;;;;4997995;28;20018;-79
2022/04/01 08:25:07;;;;;;;133.85;97.00;;;17.00;65.30;;;;;;5015632;28;20022;-79
2022/04/01 08:27:33;;;;;;;43.63;39.15;;;16.70;65.50;;;;;;4997967;28;20536;-77
2022/04/01 08:29:59;;;;;;;15.52;13.95;;;16.60;66.50;;;;;;5015145;28;20028;-76
2022/04/01 08:32:26;;;;;;;19.70;17.70;;;16.40;66.00;;;;;;4997982;28;20361;-79
2022/04/01 08:34:52;;;;;;;7.78;6.57;;;16.00;66.90;;;;;;4997900;28;20021;-77
2022/04/01 08:37:18;;;;;;;23.15;20.30;;;15.90;67.40;;;;;;4998451;28;20021;-79
2022/04/01 08:39:45;;;;;;;19.27;17.30;;;15.80;67.00;;;;;;5015469;28;20037;-79
2022/04/01 08:42:11;;;;;;;8.20;5.78;;;15.90;66.60;;;;;;5015451;28;20072;-80
2022/04/01 08:44:41;;;;;;;965.20;722.83;;;15.80;67.20;;;;;;4997730;28;20355;-78
2022/04/01 08:47:10;;;;;;;814.42;547.63;;;15.70;68.00;;;;;;4997911;28;20083;-79
2022/04/01 08:49:36;;;;;;;75.90;48.90;;;15.50;67.50;;;;;;4997680;28;20110;-80
2022/04/01 08:52:04;;;;;;;43.72;31.15;;;15.80;66.40;;;;;;5014823;28;20022;-79
2022/04/01 08:54:34;;;;;;;248.27;179.13;;;16.20;65.90;;;;;;4997503;28;20148;-79
2022/04/01 08:57:00;;;;;;;404.80;298.65;;;16.30;65.80;;;;;;4995858;28;20360;-80
2022/04/01 08:59:30;;;;;;;94.57;80.00;;;16.50;65.50;;;;;;4995454;28;20416;-78
2022/04/01 09:02:07;;;;;;;50.40;44.97;;;16.30;64.50;;;;;;4995372;28;20112;-79
2022/04/01 09:04:33;;;;;;;70.32;57.58;;;15.70;65.90;;;;;;4995237;28;20022;-79
2022/04/01 09:07:13;;;;;;;62.40;55.83;;;15.60;66.90;;;;;;4995157;28;20029;-79
2022/04/01 09:09:40;;;;;;;41.28;37.17;;;15.80;66.10;;;;;;4996351;28;20030;-78
2022/04/01 09:12:09;;;;;;;16.10;14.38;;;15.90;65.50;;;;;;5014430;28;20029;-79
2022/04/01 09:14:36;;;;;;;22.88;20.52;;;15.90;65.60;;;;;;5000106;28;20021;-79
2022/04/01 09:17:03;;;;;;;9.05;7.90;;;15.90;65.90;;;;;;5016597;28;20022;-79
2022/04/01 09:19:34;;;;;;;14.10;12.52;;;15.80;65.10;;;;;;5034089;28;20033;-80
2022/04/01 09:22:21;;;;;;;7.10;5.15;;;15.70;65.60;;;;;;5017129;28;20453;-79
2022/04/01 09:25:09;;;;;;;8.73;5.00;;;15.20;65.80;;;;;;5034019;28;20017;-79
2022/04/01 09:27:51;;;;;;;9.65;7.05;;;15.10;66.80;;;;;;5034271;28;20379;-80
2022/04/01 09:30:26;;;;;;;9.32;6.50;;;15.30;66.90;;;;;;5016480;28;20442;-79
2022/04/01 09:33:04;;;;;;;8.52;7.28;;;15.50;66.30;;;;;;5016421;28;20091;-79
2022/04/01 09:35:32;;;;;;;8.27;6.47;;;15.10;65.60;;;;;;5034596;28;20032;-80
2022/04/01 09:38:09;;;;;;;9.63;7.18;;;15.00;66.20;;;;;;5015116;28;20021;-79
2022/04/01 09:40:35;;;;;;;17.40;10.68;;;14.30;66.20;;;;;;5014216;28;20116;-79
2022/04/01 09:43:01;;;;;;;10.60;7.38;;;13.80;67.70;;;;;;5031935;28;20093;-79
2022/04/01 09:45:28;;;;;;;11.98;8.10;;;13.40;69.60;;;;;;5032049;28;20045;-79
2022/04/01 09:48:01;;;;;;;20.38;16.08;;;13.60;70.40;;;;;;5031827;28;20036;-79
2022/04/01 09:50:56;;;;;;;11.00;9.32;;;13.80;68.50;;;;;;5032742;28;20056;-79
2022/04/01 09:53:24;;;;;;;11.75;9.95;;;13.50;69.60;;;;;;5015595;28;20399;-78
2022/04/01 09:55:52;;;;;;;17.13;11.77;;;13.50;69.20;;;;;;5034166;28;20024;-79
2022/04/01 09:58:21;;;;;;;12.02;9.40;;;13.30;69.60;;;;;;5015818;28;20025;-79
2022/04/01 10:00:47;;;;;;;17.77;13.85;;;13.30;69.80;;;;;;5015668;28;20029;-78
2022/04/01 10:03:15;;;;;;;13.23;9.25;;;13.20;71.10;;;;;;5015613;28;20582;-79
2022/04/01 10:05:41;;;;;;;20.60;15.18;;;13.60;70.20;;;;;;5015632;28;20021;-79
2022/04/01 10:08:09;;;;;;;27.40;21.58;;;13.50;69.60;;;;;;5015368;28;20049;-78
2022/04/01 10:10:36;;;;;;;11.18;8.48;;;13.50;69.60;;;;;;5016258;28;20079;-79
2022/04/01 10:13:13;;;;;;;9.70;7.00;;;13.60;69.20;;;;;;5033390;28;20017;-78
2022/04/01 10:15:42;;;;;;;22.27;13.27;;;13.40;69.50;;;;;;5015626;28;20029;-77
2022/04/01 10:18:09;;;;;;;31.23;17.02;;;13.00;70.30;;;;;;5033340;28;20021;-79
2022/04/01 10:20:37;;;;;;;11.73;8.52;;;12.70;71.50;;;;;;5015628;28;20045;-78
2022/04/01 10:23:11;;;;;;;14.13;10.68;;;12.70;71.90;;;;;;5033714;28;20014;-79
2022/04/01 10:25:39;;;;;;;11.73;9.30;;;12.70;71.30;;;;;;5015713;28;20022;-78
2022/04/01 10:28:08;;;;;;;13.85;11.48;;;12.60;71.20;;;;;;5015385;28;20022;-78
2022/04/01 10:30:35;;;;;;;13.85;8.82;;;12.60;71.50;;;;;;5015622;28;20026;-77
2022/04/01 10:33:06;;;;;;;16.52;12.30;;;12.50;71.80;;;;;;5033277;28;20017;-78
2022/04/01 10:35:38;;;;;;;13.73;11.10;;;12.30;72.30;;;;;;5033394;28;20163;-79
2022/04/01 10:38:07;;;;;;;17.00;11.48;;;12.20;72.70;;;;;;5015550;28;20491;-81
2022/04/01 10:40:35;;;;;;;13.32;10.50;;;12.10;72.40;;;;;;5033139;28;20060;-77
2022/04/01 10:43:18;;;;;;;12.15;9.73;;;12.20;72.60;;;;;;5033378;28;20341;-82
2022/04/01 10:46:14;;;;;;;12.27;9.57;;;12.60;72.80;;;;;;5015665;28;20423;-79
2022/04/01 10:52:05;;;;;;;12.20;8.63;;;12.70;72.50;;;;;;5033253;28;20037;-83
2022/04/01 10:54:30;;;;;;;13.40;10.38;;;13.10;72.20;;;;;;5015587;28;20078;-78
2022/04/01 10:57:08;;;;;;;26.67;17.48;;;13.20;70.00;;;;;;5031713;28;20021;-77
2022/04/01 10:59:45;;;;;;;23.05;18.30;;;13.40;69.40;;;;;;5015330;28;20159;-81
2022/04/01 11:02:18;;;;;;;21.48;18.15;;;13.60;69.70;;;;;;5033361;28;20407;-82
2022/04/01 11:04:45;;;;;;;11.88;9.07;;;13.50;68.90;;;;;;5015283;28;20079;-78
2022/04/01 11:07:23;;;;;;;13.40;11.80;;;13.30;69.00;;;;;;5015294;28;20132;-82
2022/04/01 11:09:49;;;;;;;12.68;9.90;;;13.30;69.80;;;;;;5031651;28;20022;-78
2022/04/01 11:12:15;;;;;;;11.45;8.85;;;12.90;70.10;;;;;;5015244;28;20075;-82
2022/04/01 11:15:16;;;;;;;11.85;8.88;;;12.90;71.50;;;;;;5033549;28;20029;-82
2022/04/01 11:17:49;;;;;;;27.95;21.85;;;13.10;69.70;;;;;;5019255;28;20038;-80
2022/04/01 11:20:32;;;;;;;19.27;14.30;;;13.30;69.40;;;;;;5035650;28;20029;-81
2022/04/01 11:22:59;;;;;;;9.98;7.72;;;13.30;69.80;;;;;;5035505;28;20022;-84
2022/04/01 11:25:25;;;;;;;11.13;8.25;;;13.40;70.20;;;;;;5019369;28;20102;-78
2022/04/01 11:28:06;;;;;;;10.73;7.93;;;13.30;70.80;;;;;;5019004;28;20063;-78
2022/04/01 11:30:40;;;;;;;13.00;8.85;;;13.50;69.60;;;;;;5036775;28;20025;-83
2022/04/01 11:33:15;;;;;;;13.27;9.10;;;13.60;69.40;;;;;;5036472;28;20018;-79
2022/04/01 11:35:44;;;;;;;19.83;14.10;;;13.80;70.20;;;;;;5018937;28;20021;-84
2022/04/01 11:38:13;;;;;;;11.60;8.90;;;14.20;68.70;;;;;;5019146;28;20057;-82
2022/04/01 11:40:40;;;;;;;12.68;9.77;;;14.20;67.90;;;;;;5036485;28;20023;-80
2022/04/01 11:43:11;;;;;;;13.23;10.25;;;14.20;67.00;;;;;;5018712;28;20067;-80
2022/04/01 11:45:45;;;;;;;12.18;8.85;;;14.10;68.50;;;;;;5036232;28;20018;-81
2022/04/01 11:48:34;;;;;;;12.77;9.52;;;13.60;68.40;;;;;;5036576;28;20022;-81
2022/04/01 11:51:14;;;;;;;12.67;9.23;;;13.20;70.10;;;;;;5006465;28;20465;-82
2022/04/01 11:53:52;;;;;;;12.20;8.68;;;13.30;70.50;;;;;;5018707;28;20028;-84
2022/04/01 11:56:23;;;;;;;13.02;9.88;;;13.60;69.20;;;;;;5018559;28;20099;-77
2022/04/01 11:58:55;;;;;;;13.07;10.18;;;13.80;69.20;;;;;;5018634;28;20037;-76
2022/04/01 12:01:24;;;;;;;54.10;27.02;;;13.90;67.90;;;;;;5036030;28;20013;-78
2022/04/01 12:03:50;;;;;;;13.35;9.88;;;13.50;68.60;;;;;;5018526;28;20159;-81
2022/04/01 12:09:05;;;;;;;15.60;9.48;;;13.30;69.40;;;;;;5035571;28;20145;-76
2022/04/01 12:11:42;;;;;;;14.13;10.07;;;13.20;69.30;;;;;;5018330;28;20112;-79
2022/04/01 12:14:08;;;;;;;13.60;10.65;;;13.20;70.40;;;;;;5035917;28;20535;-78
2022/04/01 12:16:39;;;;;;;21.33;15.38;;;13.40;69.90;;;;;;5018291;28;20535;-77
2022/04/01 12:19:04;;;;;;;;;;;13.50;68.90;;;;;;5018182;28;20043;-81
2022/04/01 12:21:31;;;;;;;16.73;11.73;;;13.60;68.80;;;;;;5018204;28;19901;-80
2022/04/01 12:23:58;;;;;;;15.00;12.13;;;13.40;68.70;;;;;;5017818;28;20029;-80
2022/04/01 12:26:26;;;;;;;15.93;12.52;;;13.40;69.80;;;;;;5017682;28;20357;-79
2022/04/01 12:28:52;;;;;;;16.25;12.40;;;13.80;68.30;;;;;;5017885;28;20017;-80
2022/04/01 12:31:24;;;;;;;16.65;12.98;;;13.90;68.30;;;;;;5018158;28;20126;-80
2022/04/01 12:33:57;;;;;;;18.20;14.93;;;13.80;68.20;;;;;;5035890;28;20024;-77
2022/04/01 12:36:34;;;;;;;20.23;14.95;;;13.80;68.30;;;;;;5017762;28;20021;-82
2022/04/01 12:39:09;;;;;;;20.85;17.45;;;13.90;67.90;;;;;;5017655;28;20033;-82
2022/04/01 12:41:35;;;;;;;18.63;15.15;;;14.00;68.10;;;;;;5035418;28;20025;-78
2022/04/01 12:44:11;;;;;;;19.77;16.40;;;13.70;68.20;;;;;;5035162;28;20025;-84
2022/04/01 12:46:37;;;;;;;17.90;14.63;;;13.70;68.80;;;;;;5017247;28;20017;-80
2022/04/01 12:49:11;;;;;;;17.10;14.10;;;13.50;69.50;;;;;;5017382;28;20074;-82
2022/04/01 12:51:40;;;;;;;17.50;15.18;;;13.90;68.50;;;;;;5033959;28;20048;-81
2022/04/01 12:54:10;;;;;;;20.30;16.92;;;14.40;67.40;;;;;;5017486;28;20036;-76
2022/04/01 12:56:40;;;;;;;20.38;16.85;;;14.70;66.70;;;;;;5033962;28;20634;-79
2022/04/01 12:59:10;;;;;;;18.52;15.20;;;14.80;65.80;;;;;;5017076;28;20040;-79
2022/04/01 13:01:38;;;;;;;22.37;17.30;;;14.40;65.70;;;;;;5033596;28;20407;-82
2022/04/01 13:04:07;;;;;;;20.58;17.25;;;14.30;67.20;;;;;;5017092;28;20267;-77
2022/04/01 13:06:33;;;;;;;19.48;16.35;;;14.40;66.90;;;;;;5034963;28;20026;-83
2022/04/01 13:09:07;;;;;;;22.65;18.23;;;14.60;66.90;;;;;;5016545;28;20107;-83
2022/04/01 13:11:39;;;;;;;21.13;18.05;;;14.70;66.40;;;;;;5034847;28;20027;-79
2022/04/01 13:14:16;;;;;;;23.05;18.33;;;14.70;65.40;;;;;;5016830;28;20060;-84
2022/04/01 13:16:43;;;;;;;21.08;17.13;;;14.50;65.40;;;;;;5033337;28;20423;-78
2022/04/01 13:19:20;;;;;;;22.90;19.08;;;14.20;66.20;;;;;;5017028;28;20102;-77
2022/04/01 13:21:46;;;;;;;21.23;17.75;;;13.90;67.40;;;;;;5016764;28;20013;-78
2022/04/01 13:24:11;;;;;;;23.20;18.58;;;13.90;67.30;;;;;;5034148;28;20029;-78
2022/04/01 13:26:37;;;;;;;22.10;18.20;;;14.10;66.80;;;;;;5016409;28;20448;-79
2022/04/01 13:29:03;;;;;;;20.73;17.60;;;13.80;67.40;;;;;;5032887;28;20074;-80
2022/04/01 13:31:29;;;;;;;24.08;18.55;;;13.90;67.20;;;;;;5016257;28;20021;-76
2022/04/01 13:33:56;;;;;;;23.23;18.70;;;14.10;66.40;;;;;;5016197;28;20113;-77
2022/04/01 13:36:23;;;;;;;22.90;19.60;;;14.10;65.60;;;;;;5016169;28;20022;-78
2022/04/01 13:38:49;;;;;;;23.17;20.30;;;13.90;66.40;;;;;;5015219;28;20030;-77
2022/04/01 13:41:15;;;;;;;21.33;17.58;;;14.20;67.20;;;;;;5033954;28;20471;-78
2022/04/01 13:43:41;;;;;;;34.42;24.77;;;14.30;65.70;;;;;;5033671;28;20107;-81
2022/04/01 13:46:07;;;;;;;25.42;20.98;;;14.70;65.40;;;;;;5016155;28;20028;-78
2022/04/01 13:48:33;;;;;;;23.35;19.60;;;15.10;64.10;;;;;;5016133;28;20372;-78
2022/04/01 13:51:02;;;;;;;21.10;18.52;;;15.30;63.20;;;;;;5033647;28;20029;-78
2022/04/01 13:53:28;;;;;;;22.27;18.70;;;15.50;62.90;;;;;;5016180;28;20040;-82
2022/04/01 13:55:54;;;;;;;22.88;19.40;;;15.00;63.40;;;;;;5033656;28;20017;-78
2022/04/01 13:58:20;;;;;;;22.25;18.70;;;15.00;64.30;;;;;;5033439;28;20155;-78
2022/04/01 14:00:46;;;;;;;20.55;18.15;;;14.80;64.60;;;;;;5033542;28;20100;-80
2022/04/01 14:03:11;;;;;;;20.65;17.80;;;14.80;64.50;;;;;;5033605;28;20018;-77
2022/04/01 14:05:37;;;;;;;20.85;18.15;;;14.80;64.80;;;;;;5015645;28;20025;-77
2022/04/01 14:08:03;;;;;;;24.35;19.70;;;14.40;64.80;;;;;;5032561;28;20053;-78
2022/04/01 14:10:29;;;;;;;21.02;18.23;;;14.60;65.40;;;;;;5033342;28;20488;-78
2022/04/01 14:12:55;;;;;;;26.15;20.33;;;14.40;65.60;;;;;;5015273;28;20112;-78
2022/04/01 14:15:21;;;;;;;25.05;19.30;;;14.50;65.60;;;;;;5015799;28;20471;-78
2022/04/01 14:17:47;;;;;;;30.20;22.38;;;14.50;64.80;;;;;;5015562;28;20051;-79
2022/04/01 14:20:13;;;;;;;38.70;26.15;;;14.90;64.80;;;;;;5015375;28;20456;-79
2022/04/01 14:22:39;;;;;;;22.75;18.73;;;15.30;63.00;;;;;;5015147;28;20013;-80
2022/04/01 14:25:05;;;;;;;21.25;18.83;;;14.80;63.90;;;;;;5033183;28;20036;-77
2022/04/01 14:27:31;;;;;;;25.67;21.27;;;14.40;64.90;;;;;;5015287;28;20018;-78
2022/04/01 14:32:40;;;;;;;22.45;19.23;;;14.80;64.80;;;;;;5033289;28;20028;-78
2022/04/01 14:35:07;;;;;;;26.13;22.23;;;14.70;63.70;;;;;;5033035;28;20021;-79
2022/04/01 14:37:33;;;;;;;22.95;19.67;;;14.40;64.80;;;;;;5015161;28;20025;-78
2022/04/01 14:39:59;;;;;;;23.40;20.90;;;14.30;65.60;;;;;;5014962;28;20079;-80
2022/04/01 14:42:25;;;;;;;24.67;20.80;;;14.20;65.50;;;;;;5015385;28;20021;-80
2022/04/01 14:44:51;;;;;;;23.40;20.90;;;14.20;65.30;;;;;;5014801;28;20025;-77
2022/04/01 14:47:16;;;;;;;24.27;21.15;;;14.20;66.70;;;;;;5015346;28;20035;-79
2022/04/01 14:49:42;;;;;;;24.15;20.33;;;14.70;64.80;;;;;;5031417;28;20025;-77
2022/04/01 14:52:08;;;;;;;23.85;20.48;;;14.70;64.10;;;;;;5032835;28;20014;-78
2022/04/01 14:54:34;;;;;;;24.45;20.80;;;14.60;63.90;;;;;;5015417;28;20025;-78
2022/04/01 14:57:00;;;;;;;40.30;31.27;;;14.50;63.90;;;;;;5033012;28;20026;-79
2022/04/01 14:59:26;;;;;;;29.80;24.65;;;14.70;64.20;;;;;;5015277;28;20368;-79
2022/04/01 15:01:52;;;;;;;28.08;24.40;;;14.50;63.10;;;;;;5015174;28;20464;-79
2022/04/01 15:04:19;;;;;;;31.63;28.00;;;14.40;64.50;;;;;;5032635;28;20022;-79